Map

Track Data

SID SEASON NUMBER BASIN SUBBASIN NAME ISO_TIME NATURE LAT LON WMO_WIND WMO_PRES WMO_AGENCY TRACK_TYPE DIST2LAND LANDFALL IFLAG USA_AGENCY USA_ATCF_ID USA_LAT USA_LON USA_RECORD USA_STATUS USA_WIND USA_PRES USA_SSHS USA_R34_NE USA_R34_SE USA_R34_SW USA_R34_NW USA_R50_NE USA_R50_SE USA_R50_SW USA_R50_NW USA_R64_NE USA_R64_SE USA_R64_SW USA_R64_NW USA_POCI USA_ROCI USA_RMW USA_EYE TOKYO_LAT TOKYO_LON TOKYO_GRADE TOKYO_WIND TOKYO_PRES TOKYO_R50_DIR TOKYO_R50_LONG TOKYO_R50_SHORT TOKYO_R30_DIR TOKYO_R30_LONG TOKYO_R30_SHORT TOKYO_LAND CMA_LAT CMA_LON CMA_CAT CMA_WIND CMA_PRES HKO_LAT HKO_LON HKO_CAT HKO_WIND HKO_PRES NEWDELHI_LAT NEWDELHI_LON NEWDELHI_GRADE NEWDELHI_WIND NEWDELHI_PRES NEWDELHI_CI NEWDELHI_DP NEWDELHI_POCI REUNION_LAT REUNION_LON REUNION_TYPE REUNION_WIND REUNION_PRES REUNION_TNUM REUNION_CI REUNION_RMW REUNION_R34_NE REUNION_R34_SE REUNION_R34_SW REUNION_R34_NW REUNION_R50_NE REUNION_R50_SE REUNION_R50_SW REUNION_R50_NW REUNION_R64_NE REUNION_R64_SE REUNION_R64_SW REUNION_R64_NW BOM_LAT BOM_LON BOM_TYPE BOM_WIND BOM_PRES BOM_TNUM BOM_CI BOM_RMW BOM_R34_NE BOM_R34_SE BOM_R34_SW BOM_R34_NW BOM_R50_NE BOM_R50_SE BOM_R50_SW BOM_R50_NW BOM_R64_NE BOM_R64_SE BOM_R64_SW BOM_R64_NW BOM_ROCI BOM_POCI BOM_EYE BOM_POS_METHOD BOM_PRES_METHOD NADI_LAT NADI_LON NADI_CAT NADI_WIND NADI_PRES WELLINGTON_LAT WELLINGTON_LON WELLINGTON_WIND WELLINGTON_PRES DS824_LAT DS824_LON DS824_STAGE DS824_WIND DS824_PRES TD9636_LAT TD9636_LON TD9636_STAGE TD9636_WIND TD9636_PRES TD9635_LAT TD9635_LON TD9635_WIND TD9635_PRES TD9635_ROCI NEUMANN_LAT NEUMANN_LON NEUMANN_CLASS NEUMANN_WIND NEUMANN_PRES MLC_LAT MLC_LON MLC_CLASS MLC_WIND MLC_PRES USA_GUST BOM_GUST BOM_GUST_PER REUNION_GUST REUNION_GUST_PER USA_SEAHGT USA_SEARAD_NE USA_SEARAD_SE USA_SEARAD_SW USA_SEARAD_NW STORM_SPEED STORM_DIR
1902266N18090 1902 38 NI BB NOT_NAMED 1902-09-23 00:00:00 TS 17.9000 89.7000 main 414 396 _________O____ -1 17.9000 89.7000 TC 30 4 352
1902266N18090 1902 38 NI BB NOT_NAMED 1902-09-23 03:00:00 TS 18.1000 89.6733 main 396 361 _________PO___ -1 18.2000 89.6600 TC 30 17.9000 89.7000 1 5 349
1902266N18090 1902 38 NI BB NOT_NAMED 1902-09-23 06:00:00 TS 18.3806 89.6107 main 361 327 _________OP___ -1 18.5000 89.6000 TC 30 18.2016 89.6268 1 6 347
1902266N18090 1902 38 NI BB NOT_NAMED 1902-09-23 09:00:00 TS 18.6725 89.5269 main 327 303 _________PP___ -1 18.8000 89.5075 TC 30 18.5026 89.5527 1 6 344
1902266N18090 1902 38 NI BB NOT_NAMED 1902-09-23 12:00:00 TS 18.9511 89.4387 main 292 270 _________OP___ -1 19.1000 89.4000 TC 30 18.8022 89.4773 1 6 344
1902266N18090 1902 38 NI BB NOT_NAMED 1902-09-23 15:00:00 TS 19.2537 89.3500 main 258 235 _________PO___ -1 19.4075 89.3000 TC 30 19.1000 89.4000 1 6 344
1902266N18090 1902 38 NI BB NOT_NAMED 1902-09-23 18:00:00 TS 19.5472 89.2596 main 235 201 _________OP___ -1 19.7000 89.2000 TC 30 19.3943 89.3193 1 6 343
1902266N18090 1902 38 NI BB NOT_NAMED 1902-09-23 21:00:00 TS 19.8224 89.1686 main 201 167 _________PP___ -1 19.9650 89.1074 TC 30 19.6799 89.2298 1 6 341
1902266N18090 1902 38 NI BB NOT_NAMED 1902-09-24 00:00:00 TS 20.0753 89.0627 main 167 145 _________OP___ -1 20.2000 89.0000 TC 30 19.9505 89.1255 1 5 335
1902266N18090 1902 38 NI BB NOT_NAMED 1902-09-24 03:00:00 TS 20.3037 88.9325 main 145 123 _________PO___ -1 20.4075 88.8649 TC 30 20.2000 89.0000 1 5 328
1902266N18090 1902 38 NI BB NOT_NAMED 1902-09-24 06:00:00 TS 20.5149 88.7713 main 123 101 _________OP___ -1 20.6000 88.7000 TC 30 20.4297 88.8425 1 5 322
1902266N18090 1902 38 NI BB NOT_NAMED 1902-09-24 09:00:00 TS 20.7226 88.5825 main 101 78 _________PP___ -1 20.8075 88.5000 TC 30 20.6376 88.6650 1 5 318
1902266N18090 1902 38 NI BB NOT_NAMED 1902-09-24 12:00:00 TS 20.9133 88.3900 main 78 55 _________OP___ -1 21.0000 88.3000 TC 30 20.8266 88.4800 1 5 317
1902266N18090 1902 38 NI BB NOT_NAMED 1902-09-24 15:00:00 TS 21.0787 88.2212 main 55 45 _________PO___ -1 21.1575 88.1424 TC 30 21.0000 88.3000 1 4 317
1902266N18090 1902 38 NI BB NOT_NAMED 1902-09-24 18:00:00 TS 21.2076 88.0891 main 45 39 _________OP___ -1 21.3000 88.0000 TC 30 21.1152 88.1782 1 3 315
1902266N18090 1902 38 NI BB NOT_NAMED 1902-09-24 21:00:00 TS 21.3146 87.9726 main 39 22 _________PP___ -1 21.4048 87.8870 TC 30 21.2244 88.0581 1 4 316
1902266N18090 1902 38 NI BB NOT_NAMED 1902-09-25 00:00:00 TS 21.4857 87.8045 main 22 0 _________OP___ -1 21.6000 87.7000 TC 30 21.3714 87.9090 1 6 319
1902266N18090 1902 38 NI BB NOT_NAMED 1902-09-25 03:00:00 TS 21.8026 87.5152 main 0 0 _________PO___ -1 22.0052 87.3304 TC 30 21.6000 87.7000 1 10 320
1902266N18090 1902 38 NI BB NOT_NAMED 1902-09-25 06:00:00 TS 22.2220 87.1351 main 0 0 _________OP___ -1 22.5000 86.9000 TC 30 21.9441 87.3703 1 11 321
1902266N18090 1902 38 NI BB NOT_NAMED 1902-09-25 09:00:00 TS 22.6542 86.7580 main 0 0 _________PP___ -1 22.9349 86.5347 TC 30 22.3735 86.9813 1 11 323
1902266N18090 1902 38 NI BB NOT_NAMED 1902-09-25 12:00:00 TS 23.1330 86.3882 main 0 0 _________OP___ -1 23.4000 86.2000 TC 30 22.8660 86.5764 1 12 327
1902266N18090 1902 38 NI BB NOT_NAMED 1902-09-25 15:00:00 TS 23.6637 86.0387 main 0 0 _________PO___ -1 23.9275 85.8774 TC 30 23.4000 86.2000 1 12 332
1902266N18090 1902 38 NI BB NOT_NAMED 1902-09-25 18:00:00 TS 24.1897 85.7637 main 0 0 _________OP___ -1 24.5000 85.6000 TC 30 23.9570 85.8864 1 12 337
1902266N18090 1902 38 NI BB NOT_NAMED 1902-09-25 21:00:00 TS 24.7556 85.5297 main 0 0 _________PP___ -1 25.0950 85.3827 TC 30 24.5294 85.6277 1 12 341
1902266N18090 1902 38 NI BB NOT_NAMED 1902-09-26 00:00:00 TS 25.3081 85.3368 main 0 0 _________OP___ -1 25.7000 85.2000 TC 30 25.1122 85.4052 1 10 342
1902266N18090 1902 38 NI BB NOT_NAMED 1902-09-26 03:00:00 NR 25.7000 85.2000 main 0 __________O___ -1 TC 25.7000 85.2000 1 8 342

About IBTrACS Database

This database is a web-friendly format of International Best Track Archive for Climate Stewardship (IBTrACS), a global best track data archive curated by NOAA dating back to 1842.

Updated: 2021-10-21